Time;durP1;ratioP1;P1;durP2;ratioP2;P2;SDS_P1;SDS_P2;PMS_P1;PMS_P2;Temp;Humidity;BMP_temperature;BMP_pressure;BME280_temperature;BME280_humidity;BME280_pressure;Samples;Min_cycle;Max_cycle;Signal;HPM_P1;HPM_P2
2023/12/01 00:09:23;;;;;;;240.00;174.90;;;;;;;-5.66;100.00;98152.31;441084;1250;140503;-69
2023/12/01 00:19:29;;;;;;;275.20;187.30;;;;;;;-5.83;100.00;98150.93;441139;1248;141077;-69
2023/12/01 00:29:36;;;;;;;245.00;178.60;;;;;;;-5.97;100.00;98156.50;441365;1250;140515;-69
2023/12/01 00:39:42;;;;;;;218.70;159.80;;;;;;;-6.04;100.00;98157.19;440895;1253;141571;-69
2023/12/01 00:49:48;;;;;;;314.60;202.60;;;;;;;-6.05;100.00;98157.20;440815;1248;140884;-69
2023/12/01 00:59:54;;;;;;;303.10;214.60;;;;;;;-5.89;100.00;98151.25;441272;1248;140258;-68
2023/12/01 01:10:00;;;;;;;278.80;200.30;;;;;;;-5.72;100.00;98158.39;441111;1250;140889;-69
2023/12/01 01:20:10;;;;;;;270.60;188.10;;;;;;;-5.59;100.00;98164.61;437508;1248;143513;-69
2023/12/01 01:30:16;;;;;;;269.60;190.30;;;;;;;-5.44;100.00;98171.61;443098;1248;140729;-69
2023/12/01 01:40:23;;;;;;;269.40;185.00;;;;;;;-5.30;100.00;98158.00;436319;1248;141018;-68
2023/12/01 01:50:29;;;;;;;282.30;186.40;;;;;;;-5.26;100.00;98148.69;436807;1251;141259;-69
2023/12/01 02:00:35;;;;;;;241.60;165.90;;;;;;;-5.30;100.00;98149.65;439908;1248;140530;-68
2023/12/01 02:10:42;;;;;;;249.50;168.50;;;;;;;-5.45;100.00;98147.41;439146;1250;141017;-68
2023/12/01 02:20:48;;;;;;;242.20;166.10;;;;;;;-5.59;100.00;98157.95;435794;1251;141110;-68
2023/12/01 02:30:56;;;;;;;234.90;152.70;;;;;;;-5.58;100.00;98166.13;440530;1248;141084;-68
2023/12/01 02:41:03;;;;;;;204.30;132.90;;;;;;;-5.54;100.00;98170.46;435743;1248;140119;-68
2023/12/01 02:51:10;;;;;;;220.70;143.40;;;;;;;-5.57;100.00;98173.95;435412;1252;141100;-69
2023/12/01 03:01:17;;;;;;;204.50;136.70;;;;;;;-5.59;100.00;98177.57;436606;1251;140832;-68
2023/12/01 03:11:27;;;;;;;206.50;131.20;;;;;;;-5.70;100.00;98183.59;436504;1251;140137;-69
2023/12/01 03:21:33;;;;;;;231.80;143.00;;;;;;;-5.85;100.00;98188.48;436896;1252;140754;-68
2023/12/01 03:31:39;;;;;;;200.70;132.10;;;;;;;-5.98;100.00;98202.55;439967;1250;142119;-69
2023/12/01 03:41:49;;;;;;;176.50;120.80;;;;;;;-6.09;100.00;98208.58;435499;1253;140735;-69
2023/12/01 03:51:55;;;;;;;308.40;118.80;;;;;;;-6.24;100.00;98197.95;440633;1251;140393;-68
2023/12/01 04:02:01;;;;;;;177.40;118.90;;;;;;;-6.39;100.00;98167.20;441220;1250;140853;-68
2023/12/01 04:12:08;;;;;;;195.80;121.20;;;;;;;-6.54;100.00;98170.02;441106;1251;140662;-67
2023/12/01 04:22:14;;;;;;;204.00;122.20;;;;;;;-6.67;100.00;98185.75;435718;1251;141586;-68
2023/12/01 04:32:21;;;;;;;214.80;128.10;;;;;;;-6.82;100.00;98179.52;441217;1252;141119;-68
2023/12/01 04:42:27;;;;;;;188.80;119.90;;;;;;;-6.92;100.00;98173.21;436465;1250;140521;-67
2023/12/01 04:52:34;;;;;;;204.20;122.10;;;;;;;-6.96;100.00;98175.48;438596;1248;141003;-69
2023/12/01 05:02:40;;;;;;;201.20;125.80;;;;;;;-7.09;100.00;98196.11;436944;1248;140260;-67
2023/12/01 05:12:49;;;;;;;195.20;129.40;;;;;;;-7.16;100.00;98220.70;436267;1248;140212;-68
2023/12/01 05:22:57;;;;;;;173.50;112.20;;;;;;;-7.14;100.00;98228.16;436629;1253;141314;-68
2023/12/01 05:33:04;;;;;;;157.70;100.70;;;;;;;-7.18;100.00;98243.52;438762;1251;141208;-69
2023/12/01 05:43:13;;;;;;;160.90;103.40;;;;;;;-7.21;100.00;98266.01;439766;1253;141374;-68
2023/12/01 05:53:19;;;;;;;205.80;112.90;;;;;;;-7.26;100.00;98261.33;441595;1253;140292;-68
2023/12/01 06:03:26;;;;;;;200.30;122.80;;;;;;;-7.31;100.00;98258.31;441172;1248;140044;-69
2023/12/01 06:13:32;;;;;;;183.50;113.30;;;;;;;-7.41;100.00;98269.83;440976;1251;140792;-69
2023/12/01 06:23:38;;;;;;;178.10;109.40;;;;;;;-7.52;100.00;98272.86;435840;1248;140412;-68
2023/12/01 06:33:44;;;;;;;174.20;111.50;;;;;;;-7.63;100.00;98282.83;438736;1251;141023;-68
2023/12/01 06:43:51;;;;;;;176.00;117.30;;;;;;;-7.75;100.00;98278.89;435313;1253;140851;-68
2023/12/01 06:53:57;;;;;;;180.90;116.90;;;;;;;-7.90;100.00;98273.27;435630;1251;140978;-68
2023/12/01 07:04:07;;;;;;;169.60;111.20;;;;;;;-7.89;100.00;98274.29;436412;1253;140627;-69
2023/12/01 07:14:14;;;;;;;169.80;103.20;;;;;;;-7.75;100.00;98288.25;435829;1253;141358;-69
2023/12/01 07:24:21;;;;;;;175.60;112.20;;;;;;;-7.57;100.00;98284.48;435247;1251;140979;-67
2023/12/01 07:34:27;;;;;;;175.50;109.00;;;;;;;-7.41;100.00;98293.13;435276;1251;141129;-65
2023/12/01 07:44:33;;;;;;;181.60;119.50;;;;;;;-7.21;100.00;98292.71;436638;1252;142158;-69
2023/12/01 07:54:40;;;;;;;183.00;120.70;;;;;;;-6.98;100.00;98296.83;435228;1250;141807;-68
2023/12/01 08:04:47;;;;;;;191.50;126.60;;;;;;;-6.71;100.00;98298.48;435939;1253;141483;-65
2023/12/01 08:14:53;;;;;;;198.70;129.00;;;;;;;-6.39;100.00;98294.93;435174;1252;140956;-70
2023/12/01 08:25:00;;;;;;;190.90;129.40;;;;;;;-6.15;100.00;98298.64;441568;1252;140896;-68
2023/12/01 08:35:08;;;;;;;183.40;117.10;;;;;;;-5.94;100.00;98318.02;436686;1253;140728;-69
2023/12/01 08:45:15;;;;;;;176.40;119.10;;;;;;;-5.68;100.00;98314.48;445050;1249;141228;-76
2023/12/01 08:55:21;;;;;;;162.10;114.60;;;;;;;-5.42;100.00;98338.39;435043;1253;141439;-62
2023/12/01 09:05:29;;;;;;;185.50;121.70;;;;;;;-5.13;100.00;98342.77;435370;1253;141164;-68
2023/12/01 09:15:35;;;;;;;162.20;111.80;;;;;;;-4.78;100.00;98359.46;443055;1252;141166;-67
2023/12/01 09:25:41;;;;;;;150.10;105.60;;;;;;;-4.20;100.00;98362.61;438870;1252;140826;-72
2023/12/01 09:35:48;;;;;;;156.00;104.20;;;;;;;-3.66;100.00;98377.89;438690;1249;141973;-66
2023/12/01 09:46:05;;;;;;;130.10;89.80;;;;;;;-3.05;100.00;98374.02;439983;1253;143263;-69
2023/12/01 09:56:14;;;;;;;117.00;78.70;;;;;;;-2.68;100.00;98369.38;436637;1253;140712;-64
2023/12/01 10:06:20;;;;;;;116.80;78.70;;;;;;;-2.47;100.00;98372.89;438512;1252;140047;-67
2023/12/01 10:16:27;;;;;;;108.40;72.00;;;;;;;-2.40;100.00;98378.98;442931;1252;141462;-75
2023/12/01 10:26:34;;;;;;;89.90;64.80;;;;;;;-2.15;100.00;98354.05;437977;1253;140922;-70
2023/12/01 10:36:41;;;;;;;98.40;66.60;;;;;;;-1.84;100.00;98381.90;437239;1252;141887;-71
2023/12/01 10:46:49;;;;;;;80.50;56.70;;;;;;;-1.73;100.00;98368.15;436726;1252;140264;-68
2023/12/01 10:57:13;;;;;;;109.00;73.30;;;;;;;-1.66;100.00;98369.62;435454;1253;140792;-67
2023/12/01 11:07:51;;;;;;;94.10;65.80;;;;;;;-1.58;100.00;98369.17;439445;1253;141164;-76
2023/12/01 11:17:58;;;;;;;86.20;62.70;;;;;;;-1.38;100.00;98369.73;435355;1252;140334;-68
2023/12/01 11:28:21;;;;;;;70.70;47.50;;;;;;;-1.20;100.00;98369.43;443820;1252;141392;-70
2023/12/01 11:38:28;;;;;;;31.70;22.10;;;;;;;-0.96;100.00;98371.49;438417;1253;140712;-69
2023/12/01 11:48:35;;;;;;;31.10;19.80;;;;;;;-0.89;100.00;98372.96;438473;1253;141461;-73
2023/12/01 11:58:42;;;;;;;29.60;18.90;;;;;;;-0.85;100.00;98369.54;438079;1253;154513;-76
2023/12/01 12:08:48;;;;;;;33.10;20.50;;;;;;;-0.79;100.00;98370.38;440810;1251;141193;-69
2023/12/01 12:18:57;;;;;;;30.10;21.20;;;;;;;-0.84;100.00;98371.42;442499;1254;140533;-85
2023/12/01 12:29:05;;;;;;;29.10;22.20;;;;;;;-0.96;100.00;98373.90;440494;1254;141226;-75
2023/12/01 12:39:16;;;;;;;36.30;24.30;;;;;;;-1.01;100.00;98377.84;437074;1254;141385;-73
2023/12/01 12:49:24;;;;;;;48.00;33.00;;;;;;;-1.00;100.00;98382.81;440678;1251;141223;-70
2023/12/01 12:59:31;;;;;;;48.60;33.60;;;;;;;-1.27;100.00;98380.67;441268;1253;139751;-70
2023/12/01 13:09:37;;;;;;;49.20;33.50;;;;;;;-1.50;100.00;98389.87;434334;1254;141146;-72
2023/12/01 13:19:44;;;;;;;48.40;32.70;;;;;;;-1.55;100.00;98375.27;434222;1253;141270;-70
2023/12/01 13:29:48;;;;;;;;;;;;;;;-1.55;100.00;98364.14;438430;1253;140256;-74
2023/12/01 13:39:55;;;;;;;43.80;32.00;;;;;;;-1.68;100.00;98367.83;441492;1251;127045;-72
2023/12/01 13:50:01;;;;;;;57.80;37.20;;;;;;;-1.90;100.00;98386.71;435077;1254;141221;-64
2023/12/01 14:00:12;;;;;;;50.10;34.10;;;;;;;-2.12;100.00;98386.71;434677;1251;141314;-66
2023/12/01 14:10:19;;;;;;;47.60;32.10;;;;;;;-2.38;100.00;98397.45;438427;1253;140551;-63
2023/12/01 14:20:26;;;;;;;48.40;34.00;;;;;;;-2.66;100.00;98408.75;435940;1254;141018;-71
2023/12/01 14:30:32;;;;;;;51.30;37.90;;;;;;;-2.91;100.00;98407.23;436588;1253;140516;-76
2023/12/01 14:40:41;;;;;;;60.30;43.20;;;;;;;-3.16;100.00;98415.92;439379;1253;141772;-77
2023/12/01 14:50:50;;;;;;;64.70;44.50;;;;;;;-3.37;100.00;98415.63;439526;1251;143460;-65
2023/12/01 15:00:56;;;;;;;55.90;39.30;;;;;;;-3.55;100.00;98431.00;437296;1251;140498;-75
2023/12/01 15:11:03;;;;;;;46.50;32.00;;;;;;;-3.69;100.00;98426.70;438517;1251;140757;-73
2023/12/01 15:21:10;;;;;;;39.60;30.10;;;;;;;-3.79;100.00;98432.08;440712;1253;140688;-77
2023/12/01 15:31:19;;;;;;;46.40;30.70;;;;;;;-3.87;100.00;98443.20;440662;1251;140397;-72
2023/12/01 15:41:25;;;;;;;46.40;33.00;;;;;;;-3.91;100.00;98436.62;438425;1253;141629;-73
2023/12/01 15:51:32;;;;;;;44.60;32.30;;;;;;;-3.94;100.00;98444.40;434439;1253;140304;-70
2023/12/01 16:01:38;;;;;;;51.50;37.00;;;;;;;-3.96;100.00;98463.09;439708;1251;140360;-74
2023/12/01 16:11:45;;;;;;;69.10;44.60;;;;;;;-4.01;100.00;98470.73;436144;1251;141152;-71
2023/12/01 16:21:53;;;;;;;121.40;70.40;;;;;;;-4.10;100.00;98452.12;434604;1253;140534;-68
2023/12/01 16:32:00;;;;;;;169.60;92.40;;;;;;;-4.21;100.00;98452.02;436793;1251;141233;-67
2023/12/01 16:42:07;;;;;;;92.60;59.10;;;;;;;-4.25;100.00;98471.57;435755;1251;140867;-69
2023/12/01 16:52:14;;;;;;;82.50;56.40;;;;;;;-4.27;100.00;98462.74;440450;1250;140937;-67
2023/12/01 17:02:20;;;;;;;81.80;55.30;;;;;;;-4.28;100.00;98475.75;434385;1253;140763;-69
2023/12/01 17:12:26;;;;;;;91.70;65.90;;;;;;;-4.31;100.00;98470.19;434798;1253;141077;-69
2023/12/01 17:22:33;;;;;;;171.90;98.30;;;;;;;-4.34;100.00;98480.14;434429;1252;140799;-69
2023/12/01 17:32:41;;;;;;;124.10;79.10;;;;;;;-4.37;100.00;98484.48;438271;1253;141137;-69
2023/12/01 17:42:47;;;;;;;220.50;116.60;;;;;;;-4.40;100.00;98464.71;434125;1253;141896;-68
2023/12/01 17:52:53;;;;;;;112.30;73.90;;;;;;;-4.41;100.00;98463.55;437125;1251;141123;-69
2023/12/01 18:03:00;;;;;;;99.50;70.00;;;;;;;-4.40;100.00;98481.64;435822;1251;140735;-68
2023/12/01 18:13:06;;;;;;;112.20;74.00;;;;;;;-4.39;100.00;98503.15;437248;1250;140790;-69
2023/12/01 18:23:12;;;;;;;119.50;76.90;;;;;;;-4.40;100.00;98478.05;434689;1251;140215;-69
2023/12/01 18:33:19;;;;;;;102.60;69.90;;;;;;;-4.41;100.00;98488.48;434461;1253;140317;-69
2023/12/01 18:43:25;;;;;;;96.30;65.70;;;;;;;-4.41;100.00;98482.01;434391;1253;141348;-68
2023/12/01 18:53:31;;;;;;;99.90;68.40;;;;;;;-4.40;100.00;98465.41;434633;1253;140196;-67
2023/12/01 19:03:38;;;;;;;78.10;52.50;;;;;;;-4.39;100.00;98467.08;451935;1250;140710;-67
2023/12/01 19:13:46;;;;;;;88.30;62.60;;;;;;;-4.33;100.00;98480.82;435805;1251;140805;-69
2023/12/01 19:23:52;;;;;;;77.60;55.70;;;;;;;-4.31;100.00;98489.48;436301;1251;141527;-70
2023/12/01 19:33:59;;;;;;;76.50;51.70;;;;;;;-4.29;100.00;98485.34;434790;1251;140382;-64
2023/12/01 19:44:06;;;;;;;75.20;51.80;;;;;;;-4.28;100.00;98499.66;435440;1251;140478;-65
2023/12/01 19:54:12;;;;;;;66.20;44.30;;;;;;;-4.27;100.00;98497.77;435145;1251;140372;-68
2023/12/01 20:04:18;;;;;;;64.70;44.90;;;;;;;-4.26;100.00;98510.57;437021;1249;140135;-71
2023/12/01 20:14:25;;;;;;;72.00;53.30;;;;;;;-4.27;100.00;98486.31;435314;1250;141289;-69
2023/12/01 20:24:34;;;;;;;61.10;43.50;;;;;;;-4.27;100.00;98475.56;440802;1250;141888;-70
2023/12/01 20:34:44;;;;;;;61.50;43.20;;;;;;;-4.22;100.00;98495.45;436194;1250;141086;-70
2023/12/01 20:44:50;;;;;;;56.10;39.00;;;;;;;-4.20;100.00;98497.63;434337;1254;140765;-73
2023/12/01 20:54:57;;;;;;;58.00;40.10;;;;;;;-4.22;100.00;98511.34;436910;1251;140673;-63
2023/12/01 21:05:03;;;;;;;56.60;39.70;;;;;;;-4.16;100.00;98505.23;434337;1252;141255;-74
2023/12/01 21:15:11;;;;;;;54.10;38.70;;;;;;;-4.12;100.00;98494.05;435097;1251;141233;-67
2023/12/01 21:25:18;;;;;;;53.00;35.90;;;;;;;-4.11;100.00;98487.17;436687;1250;140494;-67
2023/12/01 21:35:24;;;;;;;50.90;34.60;;;;;;;-4.09;100.00;98484.89;435089;1249;143123;-66
2023/12/01 21:45:31;;;;;;;33.20;25.80;;;;;;;-4.06;100.00;98462.95;436963;1250;141811;-68
2023/12/01 21:55:37;;;;;;;31.50;22.00;;;;;;;-4.05;100.00;98450.47;434715;1248;141064;-69
2023/12/01 22:05:44;;;;;;;30.50;24.70;;;;;;;-4.05;100.00;98462.08;435289;1254;140844;-67
2023/12/01 22:15:52;;;;;;;30.70;21.30;;;;;;;-4.10;100.00;98498.59;437454;1253;141808;-67
2023/12/01 22:25:58;;;;;;;30.40;21.20;;;;;;;-4.15;100.00;98511.02;434949;1250;143182;-66
2023/12/01 22:36:06;;;;;;;28.70;20.80;;;;;;;-4.12;100.00;98497.80;434655;1251;140177;-67
2023/12/01 22:46:16;;;;;;;46.40;30.80;;;;;;;-4.10;100.00;98496.54;439880;1251;140570;-68
2023/12/01 22:56:22;;;;;;;52.00;29.80;;;;;;;-4.07;100.00;98491.71;434277;1251;140467;-67
2023/12/01 23:06:29;;;;;;;37.60;24.40;;;;;;;-4.04;100.00;98500.36;434304;1250;140736;-66
2023/12/01 23:16:35;;;;;;;28.70;21.50;;;;;;;-4.02;100.00;98496.73;442200;1249;140514;-66
2023/12/01 23:26:43;;;;;;;30.00;21.50;;;;;;;-3.98;100.00;98505.38;434319;1250;141074;-67
2023/12/01 23:36:49;;;;;;;31.70;22.90;;;;;;;-3.97;100.00;98502.27;434353;1251;140892;-67
2023/12/01 23:46:56;;;;;;;33.30;27.30;;;;;;;-3.99;100.00;98486.75;448768;1249;140238;-66
2023/12/01 23:57:02;;;;;;;31.20;23.40;;;;;;;-3.97;100.00;98490.30;433920;1253;190435;-67
